Downstream station:
SHEF ID: OSLK1 LABETTE C NR OSWEGO, KS
STATION TYPE:
Regulating: Stage = 20.00, Flow = 5530
STAGE RIV-FLOW BAT-LOAD
ft cfs volt
Ccp-Rev Ccp-Rev Ccp-Rev
(US/Central)
04/05 00:00 6.24 52 12.44
04/05 01:00 6.25 53 12.40
04/05 02:00 6.25 53 12.38
04/05 03:00 6.26 55 12.36
04/05 04:00 6.27 56 12.32
04/05 05:00 6.28 57 12.31
04/05 06:00 6.29 59 12.30
04/05 07:00 6.33 64 12.29
04/05 08:00 6.32 63 12.27
04/05 09:00 6.32 63 12.31
04/05 10:00 6.32 63 12.71
04/05 11:00 6.32 63 12.96
04/05 12:00 6.31 61 13.34
04/05 13:00 6.30 60 13.85
04/05 14:00 6.29 59 13.88
04/05 15:00 6.28 57 13.76
04/05 16:00 6.27 56 13.72
04/05 17:00 6.26 55 13.76
04/05 18:00 6.25 53 13.47
04/05 19:00 6.24 52 13.72
04/05 20:00 6.23 51 12.84
04/05 21:00 6.22 50 12.53
04/05 22:00 6.22 50 12.50
04/05 23:00 6.20 47 12.48